Messwerte Chetumal

Temperatur

Temperatur
°C
1574290800 18.00 18.00 26
1574294400 19.00 19.00 24
1574298000 20.00 20.00 25
1574301600 21.00 21.00 24
1574305200 22.00 22.00 22
1574308800 23.00 23.00 21
1574312400 0.00 0.00 20
1574316000 1.00 1.00
1574319600 2.00 2.00
1574323200 3.00 3.00
1574326800 4.00 4.00
1574330400 5.00 5.00
1574334000 6.00 6.00
1574337600 7.00 7.00 21
1574341200 8.00 8.00 21
1574344800 9.00 9.00 22
1574348400 10.00 10.00 23
1574352000 11.00 11.00 27
1574355600 12.00 12.00 26
1574359200 13.00 13.00 26
1574362800 14.00 14.00 25
1574366400 15.00 15.00 24
1574370000 16.00 16.00 25
1574373600 17.00 17.00

Wir danken unserem Partner:

Aktuellste Messwerte

Temperatur
24 °C
Feuchtigkeit
92 %
Wind
0 km/h, -
Luftdruck
1015 hPa
Messzeit: 21. November 2019, 18.00Datenquelle: METAR

Weitere Messstationen in der Nähe

Messstation Temperatur Entfernung
Belize 24 °C 106 km
Cozumel 26 °C 266 km
Campeche 27 °C 281 km
Roatan 26 °C 305 km
Puerto Barrios 27 °C 308 km
Mérida 27 °C 312 km
Tela 29 °C 319 km

Wind

Windrichtung Böen Mittelwind
° km/h km/h
1574290800 18.00 17.00 - 18.00 30° 10
1574294400 19.00 18.00 - 19.00 0
1574298000 20.00 19.00 - 20.00 0
1574301600 21.00 20.00 - 21.00 0
1574305200 22.00 21.00 - 22.00 0
1574308800 23.00 22.00 - 23.00 0
1574312400 0.00 23.00 - 0.00 0
1574316000 1.00 0.00 - 1.00
1574319600 2.00 1.00 - 2.00
1574323200 3.00 2.00 - 3.00
1574326800 4.00 3.00 - 4.00
1574330400 5.00 4.00 - 5.00
1574334000 6.00 5.00 - 6.00
1574337600 7.00 6.00 - 7.00 360° 5
1574341200 8.00 7.00 - 8.00 0
1574344800 9.00 8.00 - 9.00 10° 10
1574348400 10.00 9.00 - 10.00 0
1574352000 11.00 10.00 - 11.00 0
1574355600 12.00 11.00 - 12.00 90° 10
1574359200 13.00 12.00 - 13.00 120° 20
1574362800 14.00 13.00 - 14.00 130° 10
1574366400 15.00 14.00 - 15.00 90° 10
1574370000 16.00 15.00 - 16.00 0
1574373600 17.00 16.00 - 17.00

Ihre Wetterstation

Fehlt Ihre Wetterstation auf unserem Portal?

Schreiben Sie an network@meteonews.ch

Klima

Wann ist es am wärmsten? Wann regnet es am wenigsten? Unsere Klimadaten geben Auskunft.